Berea, West Virginia
Current Conditions -  °F | °C
As of 12:46 PM on Friday 24 Oct 2014 (Local Time) from KPKB Reporting Station
Broken Clouds Broken Clouds  
Wind Chill: 58°   Ceiling: 2900
Heat Index: 58°   Visibility: 10mi
Dew Point: 44°   Wind: 3mph
Humidity: 60%   Direction: NA
Pressure: 30.13"   Gusts: NA
Location:  39.14°N, 80.93°W
Report Text: KPKB 241646Z VRB03KT 10SM BKN029 14/07 A3013 RMK AO2 T01440067
Loading
Personal Weather Stations






























Interactive Weather Map
Tropical Storm Tracking
New forecast layout! Learn more

10-Day Weather Forecast

Advertisements
Track Severe Weather on mobile